createdAt,value
2018-02-05T08:45:44.642Z,14.9
2018-02-05T08:46:47.466Z,14.3
2018-02-05T08:47:49.986Z,14.5
2018-02-05T08:48:52.492Z,14.8
2018-02-05T08:49:54.922Z,14.9
2018-02-05T08:50:57.322Z,14.9
2018-02-05T08:52:03.460Z,15.1
2018-02-05T08:53:07.052Z,15.1
2018-02-05T08:54:09.874Z,15.1
2018-02-05T08:55:12.399Z,15.3
2018-02-05T08:56:14.832Z,15.2
2018-02-05T08:57:23.118Z,15.2
2018-02-05T08:58:25.805Z,15.3
2018-02-05T08:59:28.395Z,15.3
2018-02-05T09:00:30.922Z,15.4
2018-02-05T09:01:33.500Z,15.5
2018-02-05T09:02:36.191Z,15.5
2018-02-05T09:03:38.730Z,15.5
2018-02-05T09:04:41.587Z,15.6
2018-02-05T09:05:44.539Z,15.4
2018-02-05T09:06:47.045Z,15.4
2018-02-05T09:07:49.547Z,15.4
2018-02-05T09:08:52.136Z,15.4
2018-02-05T09:09:54.530Z,15.3
2018-02-05T09:10:57.151Z,15.2
2018-02-05T09:11:59.604Z,15.2
2018-02-05T09:13:02.181Z,15.1
2018-02-05T09:14:04.829Z,15.1
2018-02-05T09:15:07.403Z,15
2018-02-05T09:16:09.849Z,15.1
2018-02-05T09:17:12.335Z,15.1
2018-02-05T09:18:14.853Z,15.1
2018-02-05T09:19:17.334Z,15
2018-02-05T09:20:19.844Z,15
2018-02-05T09:21:22.291Z,14.9
2018-02-05T09:22:24.825Z,15
2018-02-05T09:23:27.326Z,15
2018-02-05T09:24:29.822Z,14.8
2018-02-05T09:25:32.303Z,14.6
2018-02-05T09:26:34.860Z,14.7
2018-02-05T09:27:37.318Z,14.6
2018-02-05T09:28:39.847Z,14.4
2018-02-05T09:29:42.289Z,14.3
2018-02-05T09:30:44.641Z,14.1
2018-02-05T09:31:47.122Z,14.1
2018-02-05T09:32:49.605Z,13.8
2018-02-05T09:33:52.082Z,13.6
2018-02-05T09:34:54.576Z,13.6
2018-02-05T09:35:57.401Z,13.7
2018-02-05T09:36:59.957Z,14.1
2018-02-05T09:38:02.369Z,14
2018-02-05T09:39:04.863Z,14.1
2018-02-05T09:40:07.488Z,14.1
2018-02-05T09:41:10.189Z,13.9
2018-02-05T09:42:12.787Z,13.9
2018-02-05T09:43:15.351Z,14
2018-02-05T09:44:18.172Z,14
2018-02-05T09:45:21.191Z,13.9
2018-02-05T09:46:23.713Z,13.9
2018-02-05T09:47:30.611Z,13.8
2018-02-05T09:48:52.143Z,13.9
2018-02-05T09:49:54.770Z,14.2
2018-02-05T09:50:57.312Z,14.5
2018-02-05T09:51:59.768Z,14.6
2018-02-05T09:53:05.991Z,14.5
2018-02-05T09:54:08.836Z,14.7
2018-02-05T09:55:13.168Z,14.8
2018-02-05T09:56:15.669Z,14.8
2018-02-05T09:57:18.270Z,14.8
2018-02-05T09:58:20.812Z,15
2018-02-05T09:59:23.256Z,15
2018-02-05T10:00:25.762Z,15.1
2018-02-05T10:01:28.263Z,15
2018-02-05T10:02:30.788Z,15.1
2018-02-05T10:03:33.159Z,15.1
2018-02-05T10:04:35.773Z,15.3
2018-02-05T10:05:38.338Z,15.4
2018-02-05T10:06:40.855Z,15.5
2018-02-05T10:07:43.325Z,15.6
2018-02-05T10:08:45.799Z,15.6
2018-02-05T10:09:48.311Z,15.7
2018-02-05T10:10:50.753Z,15.8
2018-02-05T10:11:53.275Z,15.8
2018-02-05T10:12:55.889Z,16.1
2018-02-05T10:14:04.852Z,16.2
2018-02-05T10:15:07.411Z,16.1
2018-02-05T10:16:09.926Z,16.1
2018-02-05T10:17:12.571Z,16.1
2018-02-05T10:18:15.364Z,16.3
2018-02-05T10:19:18.894Z,16.2
2018-02-05T10:20:21.349Z,16.2
2018-02-05T10:21:23.901Z,16.3
2018-02-05T10:22:26.575Z,16.2
2018-02-05T10:23:29.151Z,16.1
2018-02-05T10:24:31.604Z,16.2
2018-02-05T10:25:34.092Z,16.3
2018-02-05T10:26:36.724Z,16.3
2018-02-05T10:27:39.365Z,16.2
2018-02-05T10:28:42.266Z,16.2
2018-02-05T10:29:44.644Z,16.1
2018-02-05T10:30:47.125Z,16.4
2018-02-05T10:31:49.722Z,16.2
2018-02-05T10:32:52.201Z,16
2018-02-05T10:33:54.648Z,16.1
2018-02-05T10:34:57.056Z,16.1
2018-02-05T10:35:59.588Z,16.1
2018-02-05T10:37:02.059Z,15.9
2018-02-05T10:38:04.560Z,15.9
2018-02-05T10:39:07.072Z,15.9
2018-02-05T10:40:09.677Z,15.9
2018-02-05T11:09:17.804Z,14.7
2018-02-05T11:10:21.741Z,14.7
2018-02-05T11:11:25.185Z,14.4
2018-02-05T11:12:28.598Z,14.5
2018-02-05T11:13:35.789Z,14.4
2018-02-05T11:14:41.556Z,14.2
2018-02-05T11:15:44.167Z,14.2
2018-02-05T11:16:48.261Z,14.3
2018-02-05T11:17:50.968Z,14.2
2018-02-05T11:18:55.766Z,14.2
2018-02-05T11:20:00.375Z,14.2
2018-02-05T11:21:06.091Z,14.2
2018-02-05T11:22:09.528Z,14.3
2018-02-05T11:23:13.722Z,14.3
2018-02-05T11:26:44.886Z,14.2
2018-02-05T11:27:50.056Z,14.2
2018-02-05T11:28:52.680Z,14.2
2018-02-05T11:29:55.318Z,14
2018-02-05T11:30:58.278Z,14
2018-02-05T11:32:01.039Z,14.1
2018-02-05T11:33:03.584Z,14.2
2018-02-05T11:34:06.113Z,14.2
2018-02-05T11:35:09.186Z,14.3
2018-02-05T11:37:28.031Z,14.3
2018-02-05T11:38:37.010Z,14.2
2018-02-05T11:39:45.613Z,14.2
2018-02-05T11:40:51.197Z,14.2
2018-02-05T11:41:53.749Z,14.3
2018-02-05T11:42:57.454Z,14.3
2018-02-05T11:44:00.144Z,14.4
2018-02-05T11:45:02.758Z,14.2
2018-02-05T11:46:05.346Z,14.2
2018-02-05T11:47:07.981Z,14.1
2018-02-05T11:48:10.552Z,14.2
2018-02-05T11:49:13.069Z,14.3
2018-02-05T11:50:15.712Z,14.3
2018-02-05T11:51:19.392Z,14.1
2018-02-05T11:52:22.105Z,14
2018-02-05T11:53:24.841Z,14.2
2018-02-05T11:54:28.396Z,14.2
2018-02-05T11:55:31.626Z,14.2
2018-02-05T11:56:34.237Z,14.3
2018-02-05T11:57:36.814Z,14.4
2018-02-05T11:58:39.384Z,14.6
2018-02-05T11:59:42.071Z,14.8
2018-02-05T12:00:44.843Z,14.9
2018-02-05T12:01:47.480Z,15
2018-02-05T12:02:50.068Z,15.1
2018-02-05T12:03:52.714Z,15.1
2018-02-05T12:04:55.392Z,15.2
2018-02-05T12:05:58.182Z,15.3
2018-02-05T12:07:01.637Z,15.4
2018-02-05T12:09:21.733Z,15.6
2018-02-05T12:10:24.343Z,15.7
2018-02-05T12:11:27.194Z,15.9
2018-02-05T12:15:44.235Z,16.1
2018-02-05T12:16:46.852Z,16.1
2018-02-05T12:17:50.964Z,16.3
2018-02-05T12:18:54.211Z,16.4
2018-02-05T12:19:57.116Z,16.3
2018-02-05T12:21:00.085Z,16.4
2018-02-05T12:22:02.868Z,16.4
2018-02-05T12:23:05.592Z,16.4
2018-02-05T12:24:08.416Z,16.6
2018-02-05T12:25:11.763Z,16.7
2018-02-05T12:26:14.429Z,16.6
2018-02-05T12:27:17.085Z,16.7
2018-02-05T12:28:19.668Z,16.8
2018-02-05T12:29:22.304Z,16.6
2018-02-05T12:30:24.953Z,16.4
2018-02-05T12:31:27.651Z,16.5
2018-02-05T12:32:31.537Z,16.4
2018-02-05T12:33:34.668Z,16.4
2018-02-05T12:34:37.358Z,16.1
2018-02-05T12:35:40.112Z,16.3
2018-02-05T12:36:42.750Z,16.4
2018-02-05T12:37:45.394Z,16.3
2018-02-05T12:38:48.270Z,16.3
2018-02-05T12:39:50.916Z,16.3
2018-02-05T12:40:53.758Z,16.2
2018-02-05T12:41:56.360Z,16.2
2018-02-05T12:42:58.909Z,16
2018-02-05T12:44:01.587Z,15.9
2018-02-05T12:45:04.257Z,15.9
2018-02-05T12:46:07.124Z,15.9
2018-02-05T12:47:09.895Z,15.7
2018-02-05T12:48:16.068Z,15.6
2018-02-05T12:49:18.706Z,15.7
2018-02-05T12:50:21.597Z,15.6
2018-02-05T12:51:24.184Z,15.6
2018-02-05T12:52:26.880Z,15.3
2018-02-05T12:53:29.628Z,15.2
2018-02-05T12:54:32.346Z,15.1
2018-02-05T12:58:50.358Z,15.2
2018-02-05T12:59:52.997Z,15.1
2018-02-05T13:00:55.566Z,15.2
2018-02-05T13:01:58.135Z,15.2
2018-02-05T13:03:00.709Z,15.1
2018-02-05T13:04:03.272Z,15.2
2018-02-05T13:05:06.024Z,15.1
2018-02-05T13:06:08.697Z,15.1
2018-02-05T13:07:11.463Z,15
2018-02-05T13:08:14.949Z,14.9
2018-02-05T13:09:17.596Z,14.9
2018-02-05T13:10:20.149Z,14.9
2018-02-05T13:11:22.760Z,15
2018-02-05T13:12:25.414Z,15.1
2018-02-05T13:13:28.163Z,15.1
2018-02-05T13:15:44.697Z,15.3
2018-02-05T13:16:47.224Z,15.2
2018-02-05T13:17:49.830Z,15.1
2018-02-05T13:18:52.340Z,15.1
2018-02-05T13:23:08.624Z,14.9
2018-02-05T13:25:41.043Z,14.9
2018-02-05T13:26:43.709Z,14.9
2018-02-05T13:29:12.290Z,15
2018-02-05T13:30:14.910Z,14.9
2018-02-05T13:31:17.840Z,14.9
2018-02-05T13:32:20.533Z,15
2018-02-05T13:33:23.151Z,15
2018-02-05T13:34:25.728Z,15
2018-02-05T13:35:28.338Z,15
2018-02-05T13:36:30.882Z,15
2018-02-05T13:37:33.437Z,14.9
2018-02-05T13:38:35.934Z,15
2018-02-05T13:39:38.581Z,14.9
2018-02-05T13:40:41.291Z,15
2018-02-05T13:41:43.926Z,15
2018-02-05T13:42:46.537Z,15
2018-02-05T13:43:49.163Z,14.9
2018-02-05T13:44:51.863Z,14.9
2018-02-05T13:45:58.626Z,14.9
2018-02-05T13:47:01.471Z,15
2018-02-05T13:48:04.187Z,14.9
2018-02-05T13:49:06.797Z,15
2018-02-05T13:50:09.361Z,14.9
2018-02-05T13:51:11.892Z,14.8
2018-02-05T13:52:14.496Z,14.8
2018-02-05T13:53:17.054Z,14.8
2018-02-05T13:54:19.677Z,14.9
2018-02-05T13:55:22.301Z,14.8
2018-02-05T13:56:24.851Z,14.7
2018-02-05T13:57:27.461Z,14.6
2018-02-05T13:58:30.135Z,14.7
2018-02-05T13:59:32.801Z,14.7
2018-02-05T14:00:35.569Z,14.6
2018-02-05T14:01:38.293Z,14.6
2018-02-05T14:02:41.097Z,14.7
2018-02-05T14:03:43.802Z,14.6
2018-02-05T14:04:46.521Z,14.6
2018-02-05T14:05:49.331Z,14.6
2018-02-05T14:06:52.384Z,14.6
2018-02-05T14:07:55.008Z,14.6
2018-02-05T14:08:58.018Z,14.9
2018-02-05T14:12:42.721Z,15.3
2018-02-05T14:15:15.154Z,15.4
2018-02-05T14:16:18.348Z,15.6
2018-02-05T14:17:21.014Z,15.6
2018-02-05T14:18:23.611Z,15.8
2018-02-05T14:19:26.373Z,15.9
2018-02-05T14:24:47.192Z,16.3
2018-02-05T14:25:49.922Z,16.1
2018-02-05T14:26:52.577Z,16.2
2018-02-05T14:27:55.161Z,16.1
2018-02-05T14:28:57.809Z,16.2
2018-02-05T14:30:00.659Z,16.1
2018-02-05T14:32:42.503Z,15.9
2018-02-05T14:33:45.445Z,15.8
2018-02-05T14:34:48.090Z,15.8
2018-02-05T14:35:50.784Z,15.7
2018-02-05T14:36:53.386Z,15.6
2018-02-05T14:37:56.053Z,15.6
2018-02-05T14:38:58.613Z,15.6
2018-02-05T14:40:01.746Z,15.4
2018-02-05T14:41:04.458Z,15.5
2018-02-05T14:42:07.114Z,15.6
2018-02-05T14:43:09.986Z,15.4
2018-02-05T14:44:12.926Z,15.3
2018-02-05T14:45:16.107Z,15.3
2018-02-05T14:46:18.660Z,15.2
2018-02-05T14:47:26.312Z,15.1
2018-02-05T14:48:28.933Z,15.1
2018-02-05T14:49:31.701Z,14.9
2018-02-05T14:50:34.803Z,15
2018-02-05T14:51:37.447Z,15.2
2018-02-05T14:52:40.092Z,15.2
2018-02-05T14:53:42.912Z,15.1
2018-02-05T14:54:45.474Z,15.1
2018-02-05T14:55:48.120Z,15.1
2018-02-05T14:56:50.883Z,14.9
2018-02-05T14:57:53.528Z,14.8
2018-02-05T14:58:56.111Z,14.8
2018-02-05T14:59:58.937Z,14.9
2018-02-05T15:01:02.462Z,14.9
2018-02-05T15:02:05.074Z,14.8
2018-02-05T15:03:07.561Z,14.7
2018-02-05T15:04:10.217Z,14.7
2018-02-05T15:05:13.085Z,14.7
2018-02-05T15:06:15.753Z,14.6
2018-02-05T15:07:18.409Z,14.6
2018-02-05T15:08:21.116Z,14.7
2018-02-05T15:09:24.323Z,14.7
2018-02-05T15:10:26.927Z,14.7
2018-02-05T15:11:29.603Z,14.8
2018-02-05T15:12:32.306Z,14.7
2018-02-05T15:16:50.171Z,14.7
2018-02-05T15:17:52.883Z,14.7
2018-02-05T15:18:55.532Z,14.6
2018-02-05T15:19:58.140Z,14.6
2018-02-05T15:21:00.790Z,14.6
2018-02-05T15:22:03.623Z,14.5
2018-02-05T15:23:15.849Z,14.4
2018-02-05T15:24:18.718Z,14.3
2018-02-05T15:25:21.598Z,14.3
2018-02-05T15:26:24.129Z,14.2
2018-02-05T15:27:26.685Z,14.2
2018-02-05T15:28:29.347Z,14.2
2018-02-05T15:29:32.027Z,14.1
2018-02-05T15:30:34.691Z,14.1
2018-02-05T15:31:40.472Z,14
2018-02-05T15:32:43.132Z,14.1
2018-02-05T15:33:46.971Z,14.2
2018-02-05T15:34:50.097Z,14.2
2018-02-05T15:35:52.779Z,14
2018-02-05T15:36:55.285Z,14
2018-02-05T15:38:03.154Z,13.9
2018-02-05T15:39:05.726Z,14
2018-02-05T15:40:08.303Z,13.8
2018-02-05T15:41:10.938Z,13.9
2018-02-05T15:42:13.603Z,14.1
2018-02-05T15:43:16.200Z,14
2018-02-05T15:44:18.784Z,14
2018-02-05T15:45:21.554Z,13.9
2018-02-05T15:46:24.230Z,14
2018-02-05T15:47:27.552Z,14.1
2018-02-05T15:48:31.453Z,14
2018-02-05T15:49:34.071Z,14.2
2018-02-05T15:50:40.801Z,14.3
2018-02-05T15:51:43.472Z,14.4
2018-02-05T15:52:46.043Z,14.5
2018-02-05T15:53:49.033Z,14.6
2018-02-05T15:54:57.499Z,14.6
2018-02-05T15:56:00.280Z,14.5
2018-02-05T15:57:03.014Z,14.6
2018-02-05T15:58:05.593Z,14.6
2018-02-05T15:59:11.219Z,14.6
2018-02-05T16:01:38.344Z,15
2018-02-05T16:02:42.251Z,14.9
2018-02-05T16:03:45.063Z,15.2
2018-02-05T16:04:47.965Z,15.1
2018-02-05T16:05:53.003Z,15.2
2018-02-05T16:06:56.953Z,15.3
2018-02-05T16:08:00.624Z,15.4
2018-02-05T16:09:03.333Z,15.3
2018-02-05T16:10:05.992Z,15.3
2018-02-05T16:11:08.985Z,15.1
2018-02-05T16:12:11.830Z,15.3
2018-02-05T16:13:14.374Z,15.4
2018-02-05T16:14:16.888Z,15.5
2018-02-05T16:15:19.495Z,15.4
2018-02-05T16:16:22.218Z,15.6
2018-02-05T16:17:25.292Z,15.6
2018-02-05T16:18:27.861Z,15.6
2018-02-05T16:19:30.562Z,15.5
2018-02-05T16:20:33.181Z,15.6
2018-02-05T16:21:35.848Z,15.6
2018-02-05T16:22:38.613Z,15.4
2018-02-05T16:24:08.344Z,15.3
2018-02-05T16:25:10.883Z,15.2
2018-02-05T16:26:13.447Z,15.1
2018-02-05T16:27:16.036Z,14.9
2018-02-05T16:28:18.732Z,14.9
2018-02-05T16:29:21.954Z,14.9
2018-02-05T16:30:24.493Z,14.8
2018-02-05T16:31:27.339Z,14.8
2018-02-05T16:32:30.206Z,14.6
2018-02-05T16:33:32.884Z,14.6
2018-02-05T16:34:35.402Z,14.6
2018-02-05T16:35:37.922Z,14.7
2018-02-05T16:36:40.561Z,14.5
2018-02-05T16:37:43.342Z,14.4
2018-02-05T16:38:46.017Z,14.4
2018-02-05T16:39:48.621Z,14.7
2018-02-05T16:40:51.310Z,14.6
2018-02-05T16:41:53.944Z,14.4
2018-02-05T16:42:56.487Z,14.5
2018-02-05T16:43:59.177Z,14.4
2018-02-05T16:45:01.968Z,14.5
2018-02-05T16:46:04.538Z,14.5
2018-02-05T16:47:07.097Z,14.3
2018-02-05T16:48:09.708Z,14.2
2018-02-05T16:49:12.249Z,14.3
2018-02-05T16:50:14.813Z,14.3
2018-02-05T16:51:17.449Z,14.2
2018-02-05T16:52:21.059Z,14
2018-02-05T16:53:23.557Z,14.1
2018-02-05T16:54:26.278Z,14
2018-02-05T16:55:28.930Z,14
2018-02-05T16:56:31.598Z,13.9
2018-02-05T16:57:34.184Z,13.9
2018-02-05T16:58:36.936Z,13.9
2018-02-05T16:59:39.620Z,13.8
2018-02-05T17:00:42.295Z,13.8
2018-02-05T17:01:46.847Z,13.7
2018-02-05T17:02:49.426Z,13.7
2018-02-05T17:03:52.132Z,13.6
2018-02-05T17:04:54.803Z,13.8
2018-02-05T17:05:57.408Z,13.8
2018-02-05T17:07:00.460Z,13.9
2018-02-05T17:08:09.810Z,13.7
2018-02-05T17:09:12.480Z,13.8
2018-02-05T17:10:15.037Z,13.9
2018-02-05T17:11:17.707Z,13.9
2018-02-05T17:12:20.456Z,13.8
2018-02-05T17:13:23.235Z,13.9
2018-02-05T17:14:25.900Z,13.9
2018-02-05T17:15:28.606Z,14
2018-02-05T17:16:31.350Z,14
2018-02-05T17:17:34.343Z,14
2018-02-05T17:18:37.176Z,13.9
2018-02-05T17:19:40.089Z,13.9
2018-02-05T17:20:42.723Z,14
2018-02-05T17:21:45.366Z,14
2018-02-05T17:22:47.950Z,14
2018-02-05T17:23:51.691Z,14
2018-02-05T17:24:54.399Z,13.9
2018-02-05T17:25:57.687Z,13.9
2018-02-05T17:27:00.257Z,13.8
2018-02-05T17:28:03.288Z,13.8
2018-02-05T17:29:07.408Z,13.9
2018-02-05T17:30:14.963Z,14
2018-02-05T17:31:19.801Z,13.9
2018-02-05T17:32:22.935Z,13.9
2018-02-05T17:33:25.636Z,14
2018-02-05T17:34:28.329Z,13.9
2018-02-05T17:35:30.922Z,14
2018-02-05T17:36:33.745Z,14.1
2018-02-05T17:37:36.482Z,14.1
2018-02-05T17:38:39.492Z,14
2018-02-05T17:39:42.463Z,14.1
2018-02-05T17:40:45.141Z,14.3
2018-02-05T17:41:47.819Z,14.3
2018-02-05T17:42:50.322Z,14.3
2018-02-05T17:43:53.002Z,14.3
2018-02-05T17:44:55.947Z,14.4
2018-02-05T17:46:00.177Z,14.5
2018-02-05T17:47:03.447Z,14.5
2018-02-05T17:48:06.259Z,14.8
2018-02-05T17:49:08.817Z,14.8
2018-02-05T17:50:11.402Z,14.8
2018-02-05T17:51:14.108Z,15
2018-02-05T17:52:16.738Z,15
2018-02-05T17:53:19.269Z,14.9
2018-02-05T17:54:21.842Z,15.3
2018-02-05T17:55:24.359Z,15.4
2018-02-05T17:56:26.869Z,15.4
2018-02-05T17:57:29.467Z,15.4
2018-02-05T17:58:32.067Z,15.4
2018-02-05T17:59:34.574Z,15.6
2018-02-05T18:00:37.132Z,15.5
2018-02-05T18:01:39.650Z,15.6
2018-02-05T18:02:42.633Z,15.6
2018-02-05T18:04:14.772Z,15.4
2018-02-05T18:05:17.617Z,15.6
2018-02-05T18:06:21.768Z,15.4
2018-02-05T18:07:24.471Z,15.7
2018-02-05T18:08:27.082Z,15.8
2018-02-05T18:09:29.553Z,15.7
2018-02-05T18:10:32.124Z,16
2018-02-05T18:11:34.569Z,16
2018-02-05T18:12:37.078Z,16
2018-02-05T18:13:39.542Z,15.9
2018-02-05T18:14:42.067Z,15.9
2018-02-05T18:15:44.633Z,16.1
2018-02-05T18:16:47.158Z,16
2018-02-05T18:17:49.744Z,15.9
2018-02-05T18:18:52.369Z,16.3
2018-02-05T18:19:55.220Z,16.2
2018-02-05T18:20:57.711Z,16.4
2018-02-05T18:22:00.153Z,16.2
2018-02-05T18:23:02.733Z,16.3
2018-02-05T18:24:05.432Z,16.3
2018-02-05T18:25:07.977Z,16.3
2018-02-05T18:26:11.118Z,16.3
2018-02-05T18:27:13.665Z,16.3
2018-02-05T18:28:16.221Z,16.5
2018-02-05T18:29:18.751Z,16.5
2018-02-05T18:30:21.318Z,16.5
2018-02-05T18:31:23.904Z,16.5
2018-02-05T18:32:26.418Z,16.6
2018-02-05T18:33:30.717Z,16.8
2018-02-05T18:34:33.272Z,16.6
2018-02-05T18:35:35.781Z,16.6
2018-02-05T18:36:38.313Z,16.9
2018-02-05T18:37:40.936Z,16.9
2018-02-05T18:38:43.764Z,17
2018-02-05T18:39:46.356Z,16.9
2018-02-05T18:40:48.933Z,17
2018-02-05T18:41:51.438Z,16.8
2018-02-05T18:42:53.970Z,17
2018-02-05T18:44:01.396Z,17
2018-02-05T18:45:03.967Z,17
2018-02-05T18:46:06.697Z,17.1
2018-02-05T18:47:09.309Z,17.3
2018-02-05T18:48:11.945Z,17.1
2018-02-05T18:49:15.771Z,17.1
2018-02-05T18:50:18.260Z,17.1
2018-02-05T18:51:22.767Z,17.1
2018-02-05T18:52:25.501Z,17
2018-02-05T18:53:28.017Z,17
2018-02-05T18:54:30.536Z,17
2018-02-05T18:55:33.127Z,16.9
2018-02-05T18:56:35.662Z,16.9
2018-02-05T18:57:38.279Z,16.5
2018-02-05T18:58:41.128Z,16.6
2018-02-05T18:59:43.904Z,16.6
2018-02-05T19:00:46.548Z,16.5
2018-02-05T19:01:49.070Z,16.5
2018-02-05T19:02:51.601Z,16.4
2018-02-05T19:03:54.142Z,16.3
2018-02-05T19:04:56.686Z,16.3
2018-02-05T19:05:59.154Z,16.3
2018-02-05T19:07:01.697Z,16.2
2018-02-05T19:08:04.227Z,16.1
2018-02-05T19:09:06.780Z,16
2018-02-05T19:10:09.349Z,15.9
2018-02-05T19:11:11.884Z,15.7
2018-02-05T19:12:14.570Z,15.5
2018-02-05T19:13:17.143Z,15.5
2018-02-05T19:14:19.696Z,15.4
2018-02-05T19:15:22.477Z,15.5
2018-02-05T19:16:25.039Z,15.4
2018-02-05T19:17:27.626Z,15.4
2018-02-05T19:18:30.198Z,15.4
2018-02-05T19:19:32.710Z,15.4
2018-02-05T19:20:35.242Z,15.4
2018-02-05T19:21:37.790Z,15.4
2018-02-05T19:22:40.348Z,15.4
2018-02-05T19:23:42.882Z,15.3
2018-02-05T19:24:52.584Z,15.1
2018-02-05T19:25:57.441Z,15.2
2018-02-05T19:26:59.954Z,15.1
2018-02-05T19:28:03.019Z,15
2018-02-05T19:29:05.813Z,14.8
2018-02-05T19:30:08.416Z,14.9
2018-02-05T19:31:11.036Z,14.9
2018-02-05T19:32:13.607Z,15.1
2018-02-05T19:33:16.182Z,15
2018-02-05T19:34:18.653Z,14.9
2018-02-05T19:35:21.208Z,14.8
2018-02-05T19:36:23.898Z,14.8
2018-02-05T19:37:26.567Z,14.8
2018-02-05T19:38:29.217Z,15
2018-02-05T19:39:31.785Z,15.1
2018-02-05T19:40:34.412Z,15.3
2018-02-05T19:41:36.926Z,15.3
2018-02-05T19:42:39.530Z,15.4
2018-02-05T19:43:42.191Z,15.4
2018-02-05T19:44:44.723Z,15.5
2018-02-05T19:45:47.218Z,15.4
2018-02-05T19:46:49.816Z,15.6
2018-02-05T19:47:52.400Z,15.8
2018-02-05T19:48:54.937Z,15.9
2018-02-05T19:49:57.435Z,16
2018-02-05T19:50:59.922Z,15.9
2018-02-05T19:52:02.538Z,16
2018-02-05T19:53:05.034Z,16
2018-02-05T19:54:07.621Z,16.1
2018-02-05T19:55:21.285Z,16.2
2018-02-05T19:56:23.800Z,16.2
2018-02-05T19:57:26.380Z,16.1
2018-02-05T19:58:28.884Z,16.3
2018-02-05T19:59:31.656Z,16.3
2018-02-05T20:00:34.186Z,16.5
2018-02-05T20:01:36.701Z,16.4
2018-02-05T20:02:40.131Z,16.5
2018-02-05T20:03:42.616Z,16.5
2018-02-05T20:04:45.217Z,16.4
2018-02-05T20:05:47.972Z,16.7
2018-02-05T20:06:50.566Z,16.6
2018-02-05T20:07:53.263Z,16.6
2018-02-05T20:08:55.840Z,16.5
2018-02-05T20:09:58.301Z,16.6
2018-02-05T20:11:00.984Z,16.7
2018-02-05T20:12:03.507Z,16.7
2018-02-05T20:13:06.123Z,16.7
2018-02-05T20:14:08.633Z,16.7
2018-02-05T20:15:11.190Z,17
2018-02-05T20:16:19.088Z,17
2018-02-05T20:17:21.664Z,17.1
2018-02-05T20:18:24.185Z,17.2
2018-02-05T20:19:26.668Z,17.1
2018-02-05T20:20:29.115Z,17.1
2018-02-05T20:21:31.591Z,17.1
2018-02-05T20:22:34.194Z,17.1
2018-02-05T20:23:36.678Z,17
2018-02-05T20:24:39.159Z,17
2018-02-05T20:25:41.615Z,16.8
2018-02-05T20:26:44.194Z,16.8
2018-02-05T20:27:46.856Z,16.7
2018-02-05T20:28:49.327Z,16.6
2018-02-05T20:29:51.792Z,16.4
2018-02-05T20:30:57.476Z,16.3
2018-02-05T20:32:00.067Z,16.2
2018-02-05T20:33:02.658Z,16.2
2018-02-05T20:34:05.135Z,16.1
2018-02-05T20:35:07.767Z,16
2018-02-05T20:36:10.334Z,16
2018-02-05T20:37:12.847Z,15.9
2018-02-05T20:38:15.350Z,15.8
2018-02-05T20:39:17.786Z,15.7
2018-02-05T20:40:20.278Z,15.6
2018-02-05T20:41:22.784Z,15.4
2018-02-05T20:42:25.347Z,15.4
2018-02-05T20:43:27.908Z,15.4
2018-02-05T20:44:30.736Z,15.2
2018-02-05T20:45:33.269Z,15.3
2018-02-05T20:46:35.824Z,15.2
2018-02-05T20:47:38.341Z,15.1
2018-02-05T20:48:40.817Z,15
2018-02-05T20:49:43.318Z,15.2
2018-02-05T20:50:45.821Z,15.3
2018-02-05T20:51:48.390Z,15.3
2018-02-05T20:52:50.926Z,15.4
2018-02-05T20:53:53.427Z,15.3
2018-02-05T20:54:55.882Z,15.3
2018-02-05T20:55:58.418Z,15.3
2018-02-05T20:57:00.923Z,15.2
2018-02-05T20:58:03.450Z,15.1
2018-02-05T20:59:06.026Z,15.2
2018-02-05T21:00:08.493Z,15
2018-02-05T21:01:10.891Z,14.8
2018-02-05T21:02:13.352Z,14.8
2018-02-05T21:03:15.817Z,14.9
2018-02-05T21:04:18.346Z,15
2018-02-05T21:05:21.058Z,15.1
2018-02-05T21:06:23.525Z,15.1
2018-02-05T21:07:26.068Z,15
2018-02-05T21:08:28.588Z,15.1
2018-02-05T21:09:31.083Z,15.1
2018-02-05T21:10:33.686Z,15
2018-02-05T21:11:36.237Z,14.9
2018-02-05T21:12:38.751Z,14.9
2018-02-05T21:13:41.402Z,14.9
2018-02-05T21:14:44.118Z,14.8
2018-02-05T21:15:47.187Z,14.6
2018-02-05T21:16:49.692Z,14.7
2018-02-05T21:17:56.286Z,14.6
2018-02-05T21:18:58.797Z,14.7
2018-02-05T21:20:01.269Z,14.8
2018-02-05T21:21:03.811Z,14.7
2018-02-05T21:22:06.375Z,14.7
2018-02-05T21:23:08.907Z,14.7
2018-02-05T21:24:11.873Z,14.6
2018-02-05T21:25:14.483Z,14.6
2018-02-05T21:26:17.025Z,14.6
2018-02-05T21:27:19.469Z,14.6
2018-02-05T21:28:21.891Z,14.5
2018-02-05T21:29:24.381Z,14.5
2018-02-05T21:30:26.901Z,14.5
2018-02-05T21:31:29.433Z,14.5
2018-02-05T21:32:31.899Z,14.5
2018-02-05T21:33:34.448Z,14.4
2018-02-05T21:34:37.041Z,14.4
2018-02-05T21:35:39.512Z,14.3
2018-02-05T21:36:42.038Z,14.3
2018-02-05T21:37:44.604Z,14.4
2018-02-05T21:38:47.068Z,14.2
2018-02-05T21:39:49.504Z,14.2
2018-02-05T21:40:52.048Z,14.2
2018-02-05T21:41:54.535Z,14.2
2018-02-05T21:42:57.009Z,14.2
2018-02-05T21:43:59.512Z,14.1
2018-02-05T21:45:02.008Z,14.1
2018-02-05T21:46:04.589Z,14.1
2018-02-05T21:47:07.064Z,13.9
2018-02-05T21:48:09.584Z,14
2018-02-05T21:49:12.066Z,13.9
2018-02-05T21:50:14.575Z,13.9
2018-02-05T21:51:17.159Z,13.9
2018-02-05T21:52:19.627Z,14
2018-02-05T21:53:22.062Z,14
2018-02-05T21:54:24.616Z,14.1
2018-02-05T21:55:27.098Z,13.9
2018-02-05T21:56:29.485Z,13.9
2018-02-05T21:57:31.911Z,14
2018-02-05T21:58:34.434Z,14.1
2018-02-05T21:59:36.897Z,14.1
2018-02-05T22:00:39.394Z,14.1
2018-02-05T22:01:46.005Z,14.2
2018-02-05T22:02:48.513Z,14.2
2018-02-05T22:03:50.988Z,14.1
2018-02-05T22:04:53.503Z,14
2018-02-05T22:05:56.008Z,14
2018-02-05T22:06:58.488Z,14
2018-02-05T22:08:00.971Z,14
2018-02-05T22:09:03.474Z,13.8
2018-02-05T22:10:06.011Z,13.9
2018-02-05T22:11:08.540Z,14
2018-02-05T22:12:10.938Z,14
2018-02-05T22:13:13.482Z,14
2018-02-05T22:14:15.914Z,14.1
2018-02-05T22:15:18.351Z,14
2018-02-05T22:17:34.382Z,14
2018-02-05T22:18:37.159Z,14
2018-02-05T22:19:43.686Z,14
2018-02-05T22:20:46.235Z,13.9
2018-02-05T22:21:48.830Z,13.9
2018-02-05T22:22:51.677Z,13.9
2018-02-05T22:23:54.232Z,14
2018-02-05T22:24:56.691Z,14
2018-02-05T22:25:59.108Z,14
2018-02-05T22:27:01.593Z,14.1
2018-02-05T22:28:06.294Z,14
2018-02-05T22:29:10.225Z,13.9
2018-02-05T22:30:13.050Z,13.9
2018-02-05T22:31:15.537Z,13.9
2018-02-05T22:32:18.156Z,13.9
2018-02-05T22:33:20.649Z,14
2018-02-05T22:34:23.128Z,14
2018-02-05T22:35:25.590Z,14.1
2018-02-05T22:36:28.128Z,14.1
2018-02-05T22:37:30.627Z,14
2018-02-05T22:38:33.246Z,14
2018-02-05T22:39:36.242Z,14
2018-02-05T22:40:38.853Z,14.1
2018-02-05T22:41:41.322Z,13.9
2018-02-05T22:42:43.858Z,13.9
2018-02-05T22:43:46.481Z,13.9
2018-02-05T22:44:49.088Z,14
2018-02-05T22:45:51.610Z,14
2018-02-05T22:46:54.274Z,13.9
2018-02-05T22:47:56.877Z,13.9
2018-02-05T22:48:59.426Z,13.9
2018-02-05T22:50:02.175Z,13.9
2018-02-05T22:51:04.739Z,13.9
2018-02-05T22:52:07.254Z,13.9
2018-02-05T22:53:09.814Z,13.9
2018-02-05T23:07:28.812Z,13.7
2018-02-05T23:08:31.265Z,13.7
2018-02-05T23:09:33.755Z,13.6
2018-02-05T23:10:36.186Z,13.6
2018-02-05T23:11:38.710Z,13.7
2018-02-05T23:12:41.346Z,13.6
2018-02-05T23:13:43.849Z,13.5
2018-02-05T23:14:46.341Z,13.6
2018-02-05T23:15:48.833Z,13.6
2018-02-05T23:16:51.422Z,13.6
2018-02-05T23:17:53.934Z,13.6
2018-02-05T23:18:57.481Z,13.5
2018-02-05T23:19:59.933Z,13.5
2018-02-05T23:21:02.362Z,12.4
2018-02-05T23:22:04.886Z,9.2
2018-02-05T23:23:07.409Z,8
2018-02-05T23:24:09.810Z,7.7
2018-02-05T23:25:12.505Z,7.1
2018-02-05T23:27:24.897Z,6.2
2018-02-05T23:28:27.335Z,6
2018-02-05T23:29:29.723Z,5.6
2018-02-05T23:30:32.132Z,5.8
2018-02-05T23:31:34.514Z,5.3
2018-02-05T23:32:36.945Z,5.2
2018-02-05T23:33:39.338Z,5.3
2018-02-05T23:34:41.790Z,4.9
2018-02-05T23:35:44.353Z,5.1
2018-02-05T23:36:46.803Z,4.8
2018-02-05T23:37:49.191Z,4.8
2018-02-05T23:38:51.658Z,4.5
2018-02-05T23:39:54.093Z,4.4
2018-02-05T23:40:56.755Z,4.2
2018-02-05T23:41:59.160Z,4.5
2018-02-05T23:43:01.615Z,4.4
2018-02-05T23:44:04.046Z,4.4
2018-02-05T23:45:06.504Z,3.8
2018-02-05T23:46:08.874Z,3.8
2018-02-05T23:47:13.173Z,3.8
2018-02-05T23:48:15.587Z,3.9
2018-02-05T23:49:17.980Z,3.6
2018-02-05T23:50:24.462Z,3.6
2018-02-05T23:51:26.849Z,3.5
2018-02-05T23:52:29.241Z,3.5
2018-02-05T23:53:31.630Z,3.5
2018-02-05T23:54:33.998Z,3.5
2018-02-05T23:55:36.443Z,3.3
2018-02-05T23:56:38.850Z,3.3
2018-02-05T23:57:45.765Z,3.2
2018-02-05T23:58:48.181Z,3
2018-02-05T23:59:50.545Z,3
